createdAt,value
2023-02-19T00:01:30.127Z,7.28
2023-02-19T00:04:04.142Z,8.50
2023-02-19T00:06:32.399Z,9.70
2023-02-19T00:08:59.468Z,9.20
2023-02-19T00:11:28.943Z,7.30
2023-02-19T00:13:57.686Z,7.90
2023-02-19T00:16:50.854Z,8.27
2023-02-19T00:19:19.468Z,10.30
2023-02-19T00:21:46.627Z,10.30
2023-02-19T00:24:14.118Z,11.07
2023-02-19T00:26:41.780Z,10.85
2023-02-19T00:29:10.092Z,10.38
2023-02-19T00:31:37.108Z,10.32
2023-02-19T00:34:05.537Z,8.13
2023-02-19T00:36:34.097Z,8.88
2023-02-19T00:39:00.850Z,7.03
2023-02-19T00:41:27.764Z,7.57
2023-02-19T00:43:56.671Z,8.07
2023-02-19T00:46:26.820Z,8.73
2023-02-19T00:48:53.990Z,9.48
2023-02-19T00:51:21.949Z,7.15
2023-02-19T00:53:48.998Z,6.13
2023-02-19T00:56:15.963Z,6.82
2023-02-19T00:58:42.937Z,7.32
2023-02-19T01:01:10.710Z,7.65
2023-02-19T01:03:38.595Z,6.57
2023-02-19T01:06:06.420Z,7.53
2023-02-19T01:08:33.757Z,7.38
2023-02-19T01:11:01.148Z,9.10
2023-02-19T01:13:28.592Z,8.20
2023-02-19T01:16:10.771Z,7.55
2023-02-19T01:18:37.690Z,9.23
2023-02-19T01:21:18.350Z,7.65
2023-02-19T01:23:45.318Z,6.78
2023-02-19T01:26:14.390Z,6.60
2023-02-19T01:28:41.340Z,6.22
2023-02-19T01:31:11.802Z,6.80
2023-02-19T01:33:38.772Z,7.45
2023-02-19T01:36:06.896Z,6.80
2023-02-19T01:38:33.811Z,6.40
2023-02-19T01:41:02.841Z,7.28
2023-02-19T01:43:29.998Z,9.65
2023-02-19T01:45:56.764Z,10.07
2023-02-19T01:48:34.574Z,7.50
2023-02-19T01:51:08.511Z,7.07
2023-02-19T01:53:38.451Z,8.10
2023-02-19T01:56:05.405Z,6.65
2023-02-19T01:58:33.885Z,9.27
2023-02-19T02:01:01.699Z,7.63
2023-02-19T02:03:28.755Z,8.63
2023-02-19T02:06:24.195Z,7.25
2023-02-19T02:09:14.963Z,8.63
2023-02-19T02:11:49.575Z,6.75
2023-02-19T02:14:17.920Z,7.63
2023-02-19T02:16:58.816Z,7.35
2023-02-19T02:19:44.705Z,6.85
2023-02-19T02:22:39.547Z,6.72
2023-02-19T02:25:26.080Z,6.22
2023-02-19T02:28:26.828Z,7.63
2023-02-19T02:30:58.804Z,6.40
2023-02-19T02:33:31.449Z,7.22
2023-02-19T02:36:07.392Z,5.05
2023-02-19T02:38:36.859Z,4.75
2023-02-19T02:41:03.828Z,3.88
2023-02-19T02:43:30.728Z,4.25
2023-02-19T02:45:57.916Z,4.68
2023-02-19T02:48:32.008Z,3.60
2023-02-19T02:51:13.870Z,4.30
2023-02-19T02:54:12.200Z,3.70
2023-02-19T02:56:40.454Z,3.70
2023-02-19T02:59:08.391Z,5.28
2023-02-19T03:01:56.342Z,4.97
2023-02-19T03:04:30.275Z,4.45
2023-02-19T03:06:57.322Z,4.22
2023-02-19T03:09:40.760Z,6.05
2023-02-19T03:12:29.038Z,4.55
2023-02-19T03:15:15.295Z,4.45
2023-02-19T03:18:07.273Z,4.20
2023-02-19T03:20:34.916Z,5.13
2023-02-19T03:23:01.663Z,4.30
2023-02-19T03:25:53.900Z,4.18
2023-02-19T03:28:41.705Z,5.60
2023-02-19T03:31:10.276Z,3.92
2023-02-19T03:33:37.294Z,5.32
2023-02-19T03:36:05.565Z,4.78
2023-02-19T03:38:37.614Z,4.40
2023-02-19T03:41:16.473Z,4.15
2023-02-19T03:43:51.729Z,6.25
2023-02-19T03:46:23.394Z,3.92
2023-02-19T03:48:57.946Z,3.50
2023-02-19T03:51:27.690Z,4.57
2023-02-19T03:54:17.147Z,3.15
2023-02-19T03:57:26.283Z,7.32
2023-02-19T03:59:57.317Z,3.92
2023-02-19T04:02:34.221Z,3.15
2023-02-19T04:05:22.766Z,5.43
2023-02-19T04:07:51.288Z,4.10
2023-02-19T04:10:18.245Z,3.15
2023-02-19T04:12:49.306Z,4.35
2023-02-19T04:15:20.723Z,2.85
2023-02-19T04:17:53.733Z,3.30
2023-02-19T04:22:47.049Z,2.75
2023-02-19T04:25:13.798Z,3.35
2023-02-19T04:27:40.903Z,2.53
2023-02-19T04:30:08.947Z,2.40
2023-02-19T04:32:35.728Z,2.67
2023-02-19T04:35:02.493Z,2.47
2023-02-19T04:37:29.259Z,2.55
2023-02-19T04:39:55.939Z,4.20
2023-02-19T04:42:22.936Z,3.28
2023-02-19T04:44:49.646Z,5.28
2023-02-19T04:47:19.163Z,3.42
2023-02-19T04:49:46.240Z,2.45
2023-02-19T04:52:13.328Z,3.10
2023-02-19T04:54:40.060Z,1.58
2023-02-19T04:57:06.850Z,2.45
2023-02-19T04:59:33.586Z,1.98
2023-02-19T05:02:00.378Z,1.67
2023-02-19T05:04:27.237Z,0.68
2023-02-19T05:06:54.047Z,1.73
2023-02-19T05:09:20.868Z,1.85
2023-02-19T05:11:47.611Z,0.80
2023-02-19T05:14:14.325Z,0.70
2023-02-19T05:16:41.104Z,0.30
2023-02-19T05:19:07.823Z,0.28
2023-02-19T05:21:34.575Z,0.40
2023-02-19T05:24:01.334Z,0.28
2023-02-19T05:26:28.786Z,0.40
2023-02-19T05:28:55.555Z,2.50
2023-02-19T05:31:22.521Z,0.30
2023-02-19T05:33:51.478Z,0.52
2023-02-19T05:36:20.264Z,0.30
2023-02-19T05:38:47.420Z,0.17
2023-02-19T05:41:16.724Z,1.08
2023-02-19T05:43:44.817Z,0.35
2023-02-19T05:46:13.620Z,0.30
2023-02-19T05:48:40.696Z,0.68
2023-02-19T05:51:11.209Z,0.30
2023-02-19T05:53:38.349Z,0.30
2023-02-19T05:56:05.514Z,0.20
2023-02-19T05:58:32.397Z,0.30
2023-02-19T06:00:59.118Z,0.30
2023-02-19T06:03:26.248Z,1.17
2023-02-19T06:05:52.977Z,0.30
2023-02-19T06:08:19.747Z,0.20
2023-02-19T06:10:46.529Z,0.20
2023-02-19T06:13:13.314Z,0.13
2023-02-19T06:15:40.061Z,0.20
2023-02-19T06:18:06.826Z,0.98
2023-02-19T06:20:33.629Z,0.52
2023-02-19T06:23:00.418Z,0.20
2023-02-19T06:25:27.204Z,0.30
2023-02-19T06:27:54.001Z,0.32
2023-02-19T06:30:20.811Z,0.20
2023-02-19T06:32:47.580Z,0.32
2023-02-19T06:35:14.441Z,0.10
2023-02-19T06:37:41.255Z,0.20
2023-02-19T06:40:08.512Z,0.30
2023-02-19T06:42:35.578Z,1.42
2023-02-19T06:45:02.342Z,0.20
2023-02-19T06:47:33.130Z,0.20
2023-02-19T06:50:00.638Z,0.25
2023-02-19T06:52:28.051Z,0.28
2023-02-19T06:54:54.772Z,0.30
2023-02-19T06:57:21.571Z,0.32
2023-02-19T06:59:48.264Z,0.22
2023-02-19T07:02:15.004Z,0.40
2023-02-19T07:04:41.787Z,0.95
2023-02-19T07:07:11.911Z,1.58
2023-02-19T07:09:38.618Z,0.70
2023-02-19T07:12:05.881Z,0.80
2023-02-19T07:14:32.737Z,0.50
2023-02-19T07:16:59.471Z,1.85
2023-02-19T07:19:26.199Z,0.85
2023-02-19T07:21:52.945Z,0.85
2023-02-19T07:24:21.685Z,0.85
2023-02-19T07:26:48.558Z,1.65
2023-02-19T07:29:15.405Z,2.25
2023-02-19T07:31:43.414Z,0.93
2023-02-19T07:34:10.119Z,1.40
2023-02-19T07:36:36.857Z,1.42
2023-02-19T07:39:04.006Z,1.27
2023-02-19T07:41:30.852Z,1.23
2023-02-19T07:43:57.803Z,0.75
2023-02-19T07:46:25.862Z,2.05
2023-02-19T07:48:52.640Z,0.80
2023-02-19T07:51:20.164Z,1.10
2023-02-19T07:53:47.759Z,1.45
2023-02-19T07:56:14.674Z,0.95
2023-02-19T07:58:41.867Z,1.00
2023-02-19T08:01:19.867Z,1.98
2023-02-19T08:03:48.270Z,1.30
2023-02-19T08:06:16.949Z,1.63
2023-02-19T08:08:43.723Z,1.42
2023-02-19T08:11:28.955Z,1.40
2023-02-19T08:13:55.750Z,1.40
2023-02-19T08:16:36.830Z,1.10
2023-02-19T08:19:09.274Z,1.52
2023-02-19T08:21:36.017Z,1.80
2023-02-19T08:24:02.780Z,2.55
2023-02-19T08:26:29.643Z,1.92
2023-02-19T08:28:56.356Z,1.45
2023-02-19T08:31:23.238Z,1.88
2023-02-19T08:33:50.120Z,2.85
2023-02-19T08:36:16.960Z,2.15
2023-02-19T08:38:43.713Z,1.88
2023-02-19T08:41:12.716Z,1.38
2023-02-19T08:43:40.907Z,1.20
2023-02-19T08:46:10.285Z,1.90
2023-02-19T08:48:38.224Z,1.20
2023-02-19T08:51:08.555Z,0.85
2023-02-19T08:53:37.388Z,0.80
2023-02-19T08:56:15.631Z,0.60
2023-02-19T08:58:42.776Z,2.72
2023-02-19T09:01:11.990Z,2.78
2023-02-19T09:03:39.468Z,3.92
2023-02-19T09:06:06.552Z,3.40
2023-02-19T09:08:33.320Z,2.78
2023-02-19T09:11:04.853Z,2.20
2023-02-19T09:13:31.907Z,0.88
2023-02-19T09:15:58.840Z,1.60
2023-02-19T09:18:26.978Z,1.88
2023-02-19T09:20:54.114Z,0.77
2023-02-19T09:23:21.329Z,1.63
2023-02-19T09:25:52.174Z,1.48
2023-02-19T09:28:19.451Z,3.92
2023-02-19T09:30:46.368Z,2.13
2023-02-19T09:33:13.757Z,1.23
2023-02-19T09:35:48.257Z,1.65
2023-02-19T09:38:15.298Z,3.90
2023-02-19T09:40:42.172Z,3.65
2023-02-19T09:43:10.106Z,5.28
2023-02-19T09:45:38.161Z,7.07
2023-02-19T09:48:06.380Z,4.57
2023-02-19T09:50:36.801Z,4.97
2023-02-19T09:53:05.144Z,2.25
2023-02-19T09:55:36.650Z,2.60
2023-02-19T09:58:08.729Z,6.25
2023-02-19T10:00:35.527Z,4.00
2023-02-19T10:03:12.716Z,2.85
2023-02-19T10:05:39.569Z,2.05
2023-02-19T10:08:09.159Z,1.88
2023-02-19T10:10:37.068Z,4.60
2023-02-19T10:13:29.984Z,1.65
2023-02-19T10:15:58.419Z,2.10
2023-02-19T10:18:28.521Z,2.15
2023-02-19T10:20:55.535Z,3.60
2023-02-19T10:23:22.425Z,5.22
2023-02-19T10:25:58.317Z,2.33
2023-02-19T10:28:33.941Z,2.53
2023-02-19T10:31:06.063Z,1.63
2023-02-19T10:33:32.891Z,1.33
2023-02-19T10:36:01.136Z,2.38
2023-02-19T10:38:32.738Z,3.53
2023-02-19T10:41:21.155Z,1.17
2023-02-19T10:44:08.484Z,1.35
2023-02-19T10:46:37.230Z,2.22
2023-02-19T10:49:16.118Z,1.85
2023-02-19T10:51:42.937Z,2.63
2023-02-19T10:54:27.285Z,1.52
2023-02-19T10:56:54.826Z,2.15
2023-02-19T10:59:26.262Z,2.53
2023-02-19T11:02:09.470Z,1.23
2023-02-19T11:07:14.255Z,1.75
2023-02-19T11:09:42.839Z,0.68
2023-02-19T11:12:09.777Z,4.22
2023-02-19T11:14:36.765Z,1.85
2023-02-19T11:17:06.687Z,1.45
2023-02-19T11:19:43.894Z,2.78
2023-02-19T11:22:36.007Z,1.50
2023-02-19T11:25:10.276Z,5.65
2023-02-19T11:27:37.476Z,0.43
2023-02-19T11:30:44.611Z,1.42
2023-02-19T11:33:17.401Z,2.05
2023-02-19T11:35:44.699Z,2.15
2023-02-19T11:38:13.040Z,2.80
2023-02-19T11:40:56.996Z,2.40
2023-02-19T11:43:29.645Z,5.28
2023-02-19T11:46:22.178Z,3.28
2023-02-19T11:48:56.701Z,2.60
2023-02-19T11:51:51.461Z,2.40
2023-02-19T11:54:48.808Z,2.42
2023-02-19T11:57:27.745Z,2.45
2023-02-19T12:00:04.136Z,1.85
2023-02-19T12:02:44.401Z,1.58
2023-02-19T12:05:14.131Z,1.75
2023-02-19T12:08:10.608Z,1.88
2023-02-19T12:10:49.089Z,2.50
2023-02-19T12:13:31.974Z,1.90
2023-02-19T12:16:24.161Z,3.08
2023-02-19T12:19:09.668Z,2.60
2023-02-19T12:21:36.519Z,2.03
2023-02-19T12:24:15.976Z,2.63
2023-02-19T12:26:45.686Z,1.10
2023-02-19T12:29:12.512Z,1.67
2023-02-19T12:31:49.160Z,2.15
2023-02-19T12:34:36.813Z,3.75
2023-02-19T12:37:13.086Z,2.42
2023-02-19T12:40:07.305Z,2.70
2023-02-19T12:42:43.969Z,2.53
2023-02-19T12:45:24.919Z,2.83
2023-02-19T12:48:22.335Z,2.75
2023-02-19T12:50:49.826Z,3.22
2023-02-19T12:53:39.843Z,2.63
2023-02-19T12:56:14.360Z,4.07
2023-02-19T12:58:43.856Z,2.85
2023-02-19T13:01:13.236Z,8.65
2023-02-19T13:03:42.521Z,8.05
2023-02-19T13:06:16.270Z,15.85
2023-02-19T13:09:05.339Z,7.75
2023-02-19T13:11:44.299Z,3.45
2023-02-19T13:14:30.210Z,3.22
2023-02-19T13:17:01.879Z,0.82
2023-02-19T13:19:29.936Z,3.40
2023-02-19T13:22:22.436Z,1.75
2023-02-19T13:24:49.206Z,3.45
2023-02-19T13:27:44.778Z,2.72
2023-02-19T13:30:51.865Z,1.17
2023-02-19T13:33:21.918Z,3.63
2023-02-19T13:35:51.939Z,3.58
2023-02-19T13:38:18.802Z,2.90
2023-02-19T13:41:00.207Z,1.70
2023-02-19T13:43:31.193Z,5.07
2023-02-19T13:46:03.899Z,4.82
2023-02-19T13:48:33.316Z,2.70
2023-02-19T13:51:18.978Z,2.97
2023-02-19T13:53:45.818Z,3.15
2023-02-19T13:56:34.417Z,5.13
2023-02-19T13:59:35.081Z,4.75
2023-02-19T14:02:02.384Z,6.10
2023-02-19T14:04:32.244Z,3.45
2023-02-19T14:07:05.294Z,2.83
2023-02-19T14:12:22.848Z,2.78
2023-02-19T14:14:53.445Z,6.65
2023-02-19T14:17:29.383Z,2.50
2023-02-19T14:19:57.422Z,6.32
2023-02-19T14:22:55.535Z,2.97
2023-02-19T14:25:31.336Z,2.88
2023-02-19T14:28:10.291Z,3.92
2023-02-19T14:30:48.868Z,2.95
2023-02-19T14:33:16.927Z,4.50
2023-02-19T14:35:45.953Z,2.63
2023-02-19T14:38:24.189Z,3.60
2023-02-19T14:40:53.212Z,4.10
2023-02-19T14:43:20.551Z,6.38
2023-02-19T14:45:57.768Z,5.00
2023-02-19T14:48:35.923Z,3.85
2023-02-19T14:51:05.126Z,4.15
2023-02-19T14:53:31.988Z,2.45
2023-02-19T14:55:58.843Z,2.83
2023-02-19T14:58:31.080Z,7.05
2023-02-19T15:00:57.960Z,5.57
2023-02-19T15:03:36.497Z,3.08
2023-02-19T15:06:08.067Z,3.80
2023-02-19T15:08:42.323Z,2.60
2023-02-19T15:11:11.697Z,5.30
2023-02-19T15:13:38.715Z,5.38
2023-02-19T15:16:06.019Z,4.15
2023-02-19T15:18:36.406Z,2.80
2023-02-19T15:21:04.795Z,2.45
2023-02-19T15:23:31.987Z,3.35
2023-02-19T15:25:59.079Z,3.42
2023-02-19T15:28:25.968Z,4.53
2023-02-19T15:30:59.062Z,4.35
2023-02-19T15:35:55.658Z,2.90
2023-02-19T15:38:22.586Z,4.38
2023-02-19T15:40:49.386Z,5.38
2023-02-19T15:43:32.040Z,3.72
2023-02-19T15:46:08.324Z,2.75
2023-02-19T15:48:41.708Z,5.28
2023-02-19T15:51:15.760Z,5.05
2023-02-19T15:53:45.753Z,2.75
2023-02-19T15:56:21.933Z,3.78
2023-02-19T15:58:50.445Z,2.75
2023-02-19T16:01:31.516Z,3.92
2023-02-19T16:03:58.650Z,4.97
2023-02-19T16:06:26.439Z,2.60
2023-02-19T16:08:53.130Z,4.30
2023-02-19T16:11:22.857Z,1.60
2023-02-19T16:13:53.341Z,6.30
2023-02-19T16:16:26.052Z,3.10
2023-02-19T16:18:53.146Z,3.55
2023-02-19T16:21:25.047Z,2.90
2023-02-19T16:23:59.315Z,5.75
2023-02-19T16:26:33.190Z,3.05
2023-02-19T16:29:00.215Z,3.80
2023-02-19T16:31:27.172Z,4.78
2023-02-19T16:33:54.016Z,6.00
2023-02-19T16:36:20.758Z,3.50
2023-02-19T16:38:59.976Z,6.47
2023-02-19T16:41:26.883Z,2.78
2023-02-19T16:43:55.776Z,3.22
2023-02-19T16:46:26.186Z,3.15
2023-02-19T16:48:53.033Z,2.53
2023-02-19T16:51:28.816Z,4.85
2023-02-19T16:54:16.107Z,4.10
2023-02-19T16:56:42.861Z,5.85
2023-02-19T16:59:09.649Z,5.45
2023-02-19T17:01:36.541Z,5.05
2023-02-19T17:04:05.353Z,4.88
2023-02-19T17:06:33.079Z,4.22
2023-02-19T17:08:59.839Z,3.88
2023-02-19T17:11:26.782Z,5.60
2023-02-19T17:13:53.513Z,2.67
2023-02-19T17:16:23.433Z,5.78
2023-02-19T17:18:50.900Z,4.80
2023-02-19T17:21:25.748Z,4.07
2023-02-19T17:23:54.241Z,4.55
2023-02-19T17:26:29.476Z,4.25
2023-02-19T17:29:00.508Z,2.60
2023-02-19T17:31:27.695Z,2.38
2023-02-19T17:33:54.684Z,2.40
2023-02-19T17:36:32.440Z,4.53
2023-02-19T17:38:59.962Z,2.78
2023-02-19T17:41:27.152Z,2.80
2023-02-19T17:43:53.894Z,4.03
2023-02-19T17:46:22.978Z,3.83
2023-02-19T17:48:50.650Z,4.15
2023-02-19T17:51:17.494Z,6.05
2023-02-19T17:53:44.439Z,6.90
2023-02-19T17:56:15.372Z,7.30
2023-02-19T17:58:42.162Z,6.40
2023-02-19T18:01:08.970Z,3.90
2023-02-19T18:03:36.686Z,5.30
2023-02-19T18:06:03.695Z,4.05
2023-02-19T18:08:30.763Z,7.30
2023-02-19T18:10:57.504Z,4.80
2023-02-19T18:13:24.354Z,3.53
2023-02-19T18:15:51.107Z,5.97
2023-02-19T18:18:17.872Z,6.00
2023-02-19T18:20:44.721Z,4.85
2023-02-19T18:23:11.520Z,3.58
2023-02-19T18:25:38.262Z,3.83
2023-02-19T18:28:05.419Z,5.07
2023-02-19T18:30:32.380Z,4.88
2023-02-19T18:32:59.248Z,5.07
2023-02-19T18:35:26.008Z,3.83
2023-02-19T18:37:53.927Z,6.03
2023-02-19T18:40:22.734Z,3.03
2023-02-19T18:42:49.543Z,4.60
2023-02-19T18:45:16.455Z,5.30
2023-02-19T18:47:48.240Z,7.10
2023-02-19T18:50:15.713Z,6.55
2023-02-19T18:52:42.576Z,3.15
2023-02-19T18:55:11.026Z,9.77
2023-02-19T18:57:40.661Z,5.80
2023-02-19T19:00:08.144Z,6.50
2023-02-19T19:02:48.200Z,3.88
2023-02-19T19:05:21.418Z,4.57
2023-02-19T19:07:49.668Z,5.82
2023-02-19T19:10:20.855Z,5.10
2023-02-19T19:12:47.919Z,4.93
2023-02-19T19:15:18.039Z,6.55
2023-02-19T19:17:45.403Z,5.00
2023-02-19T19:20:12.415Z,4.03
2023-02-19T19:22:39.306Z,6.75
2023-02-19T19:25:06.436Z,5.57
2023-02-19T19:27:35.556Z,6.00
2023-02-19T19:30:02.836Z,5.00
2023-02-19T19:32:29.650Z,4.05
2023-02-19T19:34:57.789Z,4.03
2023-02-19T19:37:26.768Z,4.82
2023-02-19T19:39:56.010Z,7.05
2023-02-19T19:42:23.046Z,8.02
2023-02-19T19:44:49.940Z,2.65
2023-02-19T19:47:16.672Z,4.78
2023-02-19T19:49:46.210Z,4.70
2023-02-19T19:52:13.053Z,4.47
2023-02-19T19:54:43.325Z,6.07
2023-02-19T19:57:10.559Z,5.85
2023-02-19T19:59:39.478Z,5.38
2023-02-19T20:02:07.455Z,6.57
2023-02-19T20:04:34.281Z,5.68
2023-02-19T20:07:01.094Z,5.50
2023-02-19T20:09:29.320Z,3.70
2023-02-19T20:11:58.350Z,6.03
2023-02-19T20:14:26.254Z,5.45
2023-02-19T20:16:53.728Z,4.45
2023-02-19T20:19:21.461Z,5.57
2023-02-19T20:21:49.826Z,3.55
2023-02-19T20:24:18.755Z,9.77
2023-02-19T20:26:54.509Z,7.45
2023-02-19T20:29:21.549Z,7.53
2023-02-19T20:31:51.781Z,5.70
2023-02-19T20:34:18.567Z,8.07
2023-02-19T20:36:47.187Z,5.28
2023-02-19T20:39:15.427Z,8.13
2023-02-19T20:41:46.866Z,8.30
2023-02-19T20:44:13.727Z,9.25
2023-02-19T20:46:42.266Z,10.57
2023-02-19T20:49:09.238Z,9.70
2023-02-19T20:51:46.835Z,5.28
2023-02-19T20:54:13.618Z,5.57
2023-02-19T20:56:50.920Z,7.97
2023-02-19T20:59:21.735Z,6.30
2023-02-19T21:01:49.624Z,6.97
2023-02-19T21:04:18.319Z,5.68
2023-02-19T21:06:46.693Z,6.63
2023-02-19T21:09:13.531Z,9.20
2023-02-19T21:11:44.689Z,5.60
2023-02-19T21:14:12.073Z,7.28
2023-02-19T21:16:39.053Z,6.18
2023-02-19T21:19:05.948Z,4.30
2023-02-19T21:21:34.599Z,4.90
2023-02-19T21:24:01.602Z,6.22
2023-02-19T21:26:38.349Z,5.03
2023-02-19T21:29:06.179Z,6.88
2023-02-19T21:31:43.007Z,5.15
2023-02-19T21:34:28.971Z,7.43
2023-02-19T21:36:56.359Z,5.65
2023-02-19T21:39:30.989Z,7.03
2023-02-19T21:42:01.542Z,2.83
2023-02-19T21:44:28.325Z,5.28
2023-02-19T21:46:55.171Z,10.38
2023-02-19T21:49:22.087Z,5.25
2023-02-19T21:51:57.899Z,6.30
2023-02-19T21:54:25.367Z,6.60
2023-02-19T21:56:53.143Z,5.22
2023-02-19T21:59:21.101Z,8.27
2023-02-19T22:01:48.026Z,7.15
2023-02-19T22:04:21.504Z,8.20
2023-02-19T22:06:48.277Z,7.25
2023-02-19T22:09:15.291Z,7.97
2023-02-19T22:11:42.344Z,3.83
2023-02-19T22:14:09.204Z,7.80
2023-02-19T22:16:36.104Z,4.20
2023-02-19T22:19:03.087Z,7.72
2023-02-19T22:21:34.200Z,5.93
2023-02-19T22:24:02.591Z,5.13
2023-02-19T22:26:34.311Z,6.82
2023-02-19T22:29:05.988Z,5.30
2023-02-19T22:31:33.168Z,6.65
2023-02-19T22:33:59.993Z,3.78
2023-02-19T22:36:31.196Z,5.65
2023-02-19T22:38:58.002Z,5.88
2023-02-19T22:41:26.358Z,4.13
2023-02-19T22:43:57.026Z,4.50
2023-02-19T22:46:25.181Z,3.65
2023-02-19T22:48:52.067Z,6.47
2023-02-19T22:51:20.983Z,7.45
2023-02-19T22:53:49.626Z,4.15
2023-02-19T22:56:17.376Z,4.72
2023-02-19T22:58:44.378Z,6.57
2023-02-19T23:01:12.464Z,7.88
2023-02-19T23:03:53.531Z,5.63
2023-02-19T23:06:28.789Z,5.60
2023-02-19T23:08:57.057Z,5.65
2023-02-19T23:11:28.970Z,9.10
2023-02-19T23:13:56.202Z,4.05
2023-02-19T23:16:23.088Z,5.97
2023-02-19T23:18:49.903Z,4.97
2023-02-19T23:21:17.122Z,5.85
2023-02-19T23:23:44.827Z,7.10
2023-02-19T23:26:12.785Z,5.95
2023-02-19T23:28:41.234Z,9.50
2023-02-19T23:31:08.118Z,3.97
2023-02-19T23:33:35.002Z,9.88
2023-02-19T23:36:01.912Z,9.52
2023-02-19T23:38:28.667Z,6.03
2023-02-19T23:40:55.447Z,4.75
2023-02-19T23:43:22.247Z,6.45
2023-02-19T23:45:49.023Z,6.47
2023-02-19T23:48:15.832Z,4.68
2023-02-19T23:50:42.641Z,7.68
2023-02-19T23:53:09.740Z,5.95
2023-02-19T23:55:36.591Z,5.05
2023-02-19T23:58:03.445Z,5.53
